sensor_id;sensor_type;location;lat;lon;timestamp;P1;durP1;ratioP1;P2;durP2;ratioP2
14272;SDS011;7220;49.450;11.052;2023-04-09T00:03:28;9.77;;;8.10;;
14272;SDS011;7220;49.450;11.052;2023-04-09T00:07:29;10.48;;;7.97;;
14272;SDS011;7220;49.450;11.052;2023-04-09T00:11:29;9.57;;;8.43;;
14272;SDS011;7220;49.450;11.052;2023-04-09T00:15:30;10.38;;;9.05;;
14272;SDS011;7220;49.450;11.052;2023-04-09T00:19:30;10.18;;;8.20;;
14272;SDS011;7220;49.450;11.052;2023-04-09T00:23:30;9.05;;;7.93;;
14272;SDS011;7220;49.450;11.052;2023-04-09T00:27:31;9.07;;;8.18;;
14272;SDS011;7220;49.450;11.052;2023-04-09T00:31:31;10.25;;;8.40;;
14272;SDS011;7220;49.450;11.052;2023-04-09T00:35:32;9.57;;;8.27;;
14272;SDS011;7220;49.450;11.052;2023-04-09T00:39:32;8.88;;;7.95;;
14272;SDS011;7220;49.450;11.052;2023-04-09T00:43:32;9.75;;;8.60;;
14272;SDS011;7220;49.450;11.052;2023-04-09T00:47:33;9.32;;;8.07;;
14272;SDS011;7220;49.450;11.052;2023-04-09T00:51:34;9.88;;;8.88;;
14272;SDS011;7220;49.450;11.052;2023-04-09T00:55:35;9.25;;;7.80;;
14272;SDS011;7220;49.450;11.052;2023-04-09T00:59:38;9.60;;;8.25;;
14272;SDS011;7220;49.450;11.052;2023-04-09T01:03:39;9.30;;;8.30;;
14272;SDS011;7220;49.450;11.052;2023-04-09T01:16:28;10.73;;;9.00;;
14272;SDS011;7220;49.450;11.052;2023-04-09T01:20:37;10.85;;;9.10;;
14272;SDS011;7220;49.450;11.052;2023-04-09T01:24:41;10.75;;;9.50;;
14272;SDS011;7220;49.450;11.052;2023-04-09T01:28:56;10.93;;;8.50;;
14272;SDS011;7220;49.450;11.052;2023-04-09T01:32:56;9.38;;;8.27;;
14272;SDS011;7220;49.450;11.052;2023-04-09T01:36:58;10.35;;;8.98;;
14272;SDS011;7220;49.450;11.052;2023-04-09T01:41:02;10.52;;;8.70;;
14272;SDS011;7220;49.450;11.052;2023-04-09T01:45:04;10.38;;;8.68;;
14272;SDS011;7220;49.450;11.052;2023-04-09T01:49:05;10.57;;;8.43;;
14272;SDS011;7220;49.450;11.052;2023-04-09T01:53:06;9.98;;;8.52;;
14272;SDS011;7220;49.450;11.052;2023-04-09T01:57:07;10.13;;;8.65;;
14272;SDS011;7220;49.450;11.052;2023-04-09T02:05:32;9.35;;;8.15;;
14272;SDS011;7220;49.450;11.052;2023-04-09T02:09:38;10.10;;;8.52;;
14272;SDS011;7220;49.450;11.052;2023-04-09T02:13:40;9.98;;;8.07;;
14272;SDS011;7220;49.450;11.052;2023-04-09T02:17:40;9.43;;;8.40;;
14272;SDS011;7220;49.450;11.052;2023-04-09T02:21:41;10.10;;;9.00;;
14272;SDS011;7220;49.450;11.052;2023-04-09T02:25:42;10.18;;;8.52;;
14272;SDS011;7220;49.450;11.052;2023-04-09T02:29:43;11.75;;;9.40;;
14272;SDS011;7220;49.450;11.052;2023-04-09T02:33:43;11.23;;;9.48;;
14272;SDS011;7220;49.450;11.052;2023-04-09T02:37:43;10.27;;;9.18;;
14272;SDS011;7220;49.450;11.052;2023-04-09T02:41:44;10.15;;;9.05;;
14272;SDS011;7220;49.450;11.052;2023-04-09T02:45:44;9.88;;;8.70;;
14272;SDS011;7220;49.450;11.052;2023-04-09T02:49:44;11.88;;;9.73;;
14272;SDS011;7220;49.450;11.052;2023-04-09T02:53:45;11.68;;;10.02;;
14272;SDS011;7220;49.450;11.052;2023-04-09T02:57:45;12.35;;;10.43;;
14272;SDS011;7220;49.450;11.052;2023-04-09T03:01:46;11.85;;;10.48;;
14272;SDS011;7220;49.450;11.052;2023-04-09T03:05:46;10.43;;;9.30;;
14272;SDS011;7220;49.450;11.052;2023-04-09T03:09:46;10.95;;;9.68;;
14272;SDS011;7220;49.450;11.052;2023-04-09T03:13:46;11.10;;;9.93;;
14272;SDS011;7220;49.450;11.052;2023-04-09T03:17:47;11.25;;;8.82;;
14272;SDS011;7220;49.450;11.052;2023-04-09T03:21:47;12.07;;;10.30;;
14272;SDS011;7220;49.450;11.052;2023-04-09T03:25:48;11.05;;;9.48;;
14272;SDS011;7220;49.450;11.052;2023-04-09T03:29:48;11.38;;;10.10;;
14272;SDS011;7220;49.450;11.052;2023-04-09T03:33:48;11.48;;;10.25;;
14272;SDS011;7220;49.450;11.052;2023-04-09T03:37:49;12.27;;;10.27;;
14272;SDS011;7220;49.450;11.052;2023-04-09T03:41:49;12.60;;;9.77;;
14272;SDS011;7220;49.450;11.052;2023-04-09T03:45:49;13.93;;;10.45;;
14272;SDS011;7220;49.450;11.052;2023-04-09T03:49:50;11.75;;;10.15;;
14272;SDS011;7220;49.450;11.052;2023-04-09T03:53:50;13.07;;;10.38;;
14272;SDS011;7220;49.450;11.052;2023-04-09T03:57:50;12.10;;;9.75;;
14272;SDS011;7220;49.450;11.052;2023-04-09T04:01:51;10.20;;;9.15;;
14272;SDS011;7220;49.450;11.052;2023-04-09T04:05:51;9.90;;;8.57;;
14272;SDS011;7220;49.450;11.052;2023-04-09T04:09:51;11.52;;;9.55;;
14272;SDS011;7220;49.450;11.052;2023-04-09T04:13:52;9.88;;;8.70;;
14272;SDS011;7220;49.450;11.052;2023-04-09T04:17:54;9.68;;;8.55;;
14272;SDS011;7220;49.450;11.052;2023-04-09T04:21:55;12.07;;;8.85;;
14272;SDS011;7220;49.450;11.052;2023-04-09T04:25:55;10.48;;;9.23;;
14272;SDS011;7220;49.450;11.052;2023-04-09T04:29:57;9.43;;;8.50;;
14272;SDS011;7220;49.450;11.052;2023-04-09T04:33:57;10.00;;;8.68;;
14272;SDS011;7220;49.450;11.052;2023-04-09T04:37:58;11.07;;;8.82;;
14272;SDS011;7220;49.450;11.052;2023-04-09T04:41:58;9.60;;;8.20;;
14272;SDS011;7220;49.450;11.052;2023-04-09T04:45:58;9.77;;;8.70;;
14272;SDS011;7220;49.450;11.052;2023-04-09T04:49:59;11.32;;;9.35;;
14272;SDS011;7220;49.450;11.052;2023-04-09T04:54:00;12.90;;;9.60;;
14272;SDS011;7220;49.450;11.052;2023-04-09T04:58:00;10.07;;;9.07;;
14272;SDS011;7220;49.450;11.052;2023-04-09T05:02:01;10.75;;;9.65;;
14272;SDS011;7220;49.450;11.052;2023-04-09T05:06:04;9.98;;;8.98;;
14272;SDS011;7220;49.450;11.052;2023-04-09T05:10:05;10.90;;;9.40;;
14272;SDS011;7220;49.450;11.052;2023-04-09T05:14:06;11.82;;;9.82;;
14272;SDS011;7220;49.450;11.052;2023-04-09T05:18:06;10.43;;;9.27;;
14272;SDS011;7220;49.450;11.052;2023-04-09T05:22:07;11.10;;;9.52;;
14272;SDS011;7220;49.450;11.052;2023-04-09T05:26:07;13.02;;;10.15;;
14272;SDS011;7220;49.450;11.052;2023-04-09T05:30:08;10.50;;;9.45;;
14272;SDS011;7220;49.450;11.052;2023-04-09T05:34:08;12.00;;;9.65;;
14272;SDS011;7220;49.450;11.052;2023-04-09T05:38:09;12.82;;;10.88;;
14272;SDS011;7220;49.450;11.052;2023-04-09T05:42:10;10.95;;;9.88;;
14272;SDS011;7220;49.450;11.052;2023-04-09T05:46:10;13.00;;;11.07;;
14272;SDS011;7220;49.450;11.052;2023-04-09T05:50:10;11.38;;;10.15;;
14272;SDS011;7220;49.450;11.052;2023-04-09T05:54:11;12.98;;;10.85;;
14272;SDS011;7220;49.450;11.052;2023-04-09T05:58:11;13.65;;;10.77;;
14272;SDS011;7220;49.450;11.052;2023-04-09T06:02:12;13.48;;;11.27;;
14272;SDS011;7220;49.450;11.052;2023-04-09T06:06:12;14.93;;;12.07;;
14272;SDS011;7220;49.450;11.052;2023-04-09T06:10:12;14.27;;;12.10;;
14272;SDS011;7220;49.450;11.052;2023-04-09T06:14:13;13.65;;;11.73;;
14272;SDS011;7220;49.450;11.052;2023-04-09T06:18:16;13.48;;;11.13;;
14272;SDS011;7220;49.450;11.052;2023-04-09T06:22:17;13.13;;;11.00;;
14272;SDS011;7220;49.450;11.052;2023-04-09T06:26:17;15.82;;;11.70;;
14272;SDS011;7220;49.450;11.052;2023-04-09T06:30:17;13.73;;;12.05;;
14272;SDS011;7220;49.450;11.052;2023-04-09T06:34:18;14.30;;;12.25;;
14272;SDS011;7220;49.450;11.052;2023-04-09T06:38:18;14.93;;;12.07;;
14272;SDS011;7220;49.450;11.052;2023-04-09T06:42:19;16.60;;;13.30;;
14272;SDS011;7220;49.450;11.052;2023-04-09T06:46:19;16.42;;;13.10;;
14272;SDS011;7220;49.450;11.052;2023-04-09T06:50:20;15.73;;;13.07;;
14272;SDS011;7220;49.450;11.052;2023-04-09T06:54:20;17.85;;;13.90;;
14272;SDS011;7220;49.450;11.052;2023-04-09T06:58:20;17.77;;;14.82;;
14272;SDS011;7220;49.450;11.052;2023-04-09T07:02:21;20.80;;;16.02;;
14272;SDS011;7220;49.450;11.052;2023-04-09T07:06:21;19.20;;;14.25;;
14272;SDS011;7220;49.450;11.052;2023-04-09T07:10:22;18.50;;;13.98;;
14272;SDS011;7220;49.450;11.052;2023-04-09T07:14:22;18.42;;;14.45;;
14272;SDS011;7220;49.450;11.052;2023-04-09T07:18:22;19.08;;;14.88;;
14272;SDS011;7220;49.450;11.052;2023-04-09T07:22:24;18.45;;;14.60;;
14272;SDS011;7220;49.450;11.052;2023-04-09T07:26:25;17.35;;;15.18;;
14272;SDS011;7220;49.450;11.052;2023-04-09T07:30:26;19.90;;;15.05;;
14272;SDS011;7220;49.450;11.052;2023-04-09T07:34:26;21.27;;;14.98;;
14272;SDS011;7220;49.450;11.052;2023-04-09T07:38:27;20.95;;;16.23;;
14272;SDS011;7220;49.450;11.052;2023-04-09T07:42:29;19.67;;;15.40;;
14272;SDS011;7220;49.450;11.052;2023-04-09T07:46:29;18.23;;;15.30;;
14272;SDS011;7220;49.450;11.052;2023-04-09T07:50:30;21.20;;;16.25;;
14272;SDS011;7220;49.450;11.052;2023-04-09T07:54:30;18.77;;;15.45;;
14272;SDS011;7220;49.450;11.052;2023-04-09T07:58:31;20.60;;;15.60;;
14272;SDS011;7220;49.450;11.052;2023-04-09T08:02:31;17.75;;;14.98;;
14272;SDS011;7220;49.450;11.052;2023-04-09T08:06:32;19.40;;;15.18;;
14272;SDS011;7220;49.450;11.052;2023-04-09T08:10:32;18.88;;;15.25;;
14272;SDS011;7220;49.450;11.052;2023-04-09T08:14:32;18.30;;;15.27;;
14272;SDS011;7220;49.450;11.052;2023-04-09T08:18:33;19.58;;;15.55;;
14272;SDS011;7220;49.450;11.052;2023-04-09T08:22:33;17.53;;;14.67;;
14272;SDS011;7220;49.450;11.052;2023-04-09T08:26:33;18.02;;;15.48;;
14272;SDS011;7220;49.450;11.052;2023-04-09T08:30:33;17.37;;;14.23;;
14272;SDS011;7220;49.450;11.052;2023-04-09T08:34:34;17.73;;;14.85;;
14272;SDS011;7220;49.450;11.052;2023-04-09T08:38:34;16.98;;;14.07;;
14272;SDS011;7220;49.450;11.052;2023-04-09T08:42:35;15.90;;;13.40;;
14272;SDS011;7220;49.450;11.052;2023-04-09T08:46:37;16.58;;;13.80;;
14272;SDS011;7220;49.450;11.052;2023-04-09T08:50:37;16.23;;;14.43;;
14272;SDS011;7220;49.450;11.052;2023-04-09T08:54:38;15.82;;;14.15;;
14272;SDS011;7220;49.450;11.052;2023-04-09T08:58:42;15.43;;;13.30;;
14272;SDS011;7220;49.450;11.052;2023-04-09T09:07:10;15.85;;;13.20;;
14272;SDS011;7220;49.450;11.052;2023-04-09T09:11:17;15.70;;;13.50;;
14272;SDS011;7220;49.450;11.052;2023-04-09T09:15:28;16.20;;;14.05;;
14272;SDS011;7220;49.450;11.052;2023-04-09T09:19:32;14.68;;;13.05;;
14272;SDS011;7220;49.450;11.052;2023-04-09T09:23:33;16.23;;;12.90;;
14272;SDS011;7220;49.450;11.052;2023-04-09T09:27:36;15.52;;;12.68;;
14272;SDS011;7220;49.450;11.052;2023-04-09T09:31:49;14.98;;;12.20;;
14272;SDS011;7220;49.450;11.052;2023-04-09T09:35:51;13.25;;;11.73;;
14272;SDS011;7220;49.450;11.052;2023-04-09T09:39:53;13.30;;;11.70;;
14272;SDS011;7220;49.450;11.052;2023-04-09T09:43:54;13.20;;;11.48;;
14272;SDS011;7220;49.450;11.052;2023-04-09T09:47:55;12.25;;;11.02;;
14272;SDS011;7220;49.450;11.052;2023-04-09T09:51:56;12.63;;;11.07;;
14272;SDS011;7220;49.450;11.052;2023-04-09T09:56:02;12.07;;;10.77;;
14272;SDS011;7220;49.450;11.052;2023-04-09T10:00:04;12.07;;;10.77;;
14272;SDS011;7220;49.450;11.052;2023-04-09T10:04:06;12.85;;;10.25;;
14272;SDS011;7220;49.450;11.052;2023-04-09T10:08:12;11.43;;;9.82;;
14272;SDS011;7220;49.450;11.052;2023-04-09T10:12:12;12.43;;;11.02;;
14272;SDS011;7220;49.450;11.052;2023-04-09T10:16:13;12.07;;;10.77;;
14272;SDS011;7220;49.450;11.052;2023-04-09T10:20:21;12.18;;;10.85;;
14272;SDS011;7220;49.450;11.052;2023-04-09T10:24:26;11.05;;;9.95;;
14272;SDS011;7220;49.450;11.052;2023-04-09T10:28:26;11.25;;;9.55;;
14272;SDS011;7220;49.450;11.052;2023-04-09T10:32:27;10.88;;;9.77;;
14272;SDS011;7220;49.450;11.052;2023-04-09T10:36:35;10.88;;;9.77;;
14272;SDS011;7220;49.450;11.052;2023-04-09T10:45:14;11.52;;;10.30;;
14272;SDS011;7220;49.450;11.052;2023-04-09T10:49:18;10.70;;;9.60;;
14272;SDS011;7220;49.450;11.052;2023-04-09T10:53:21;10.30;;;9.20;;
14272;SDS011;7220;49.450;11.052;2023-04-09T10:57:22;10.13;;;9.15;;
14272;SDS011;7220;49.450;11.052;2023-04-09T11:01:25;9.48;;;8.57;;
14272;SDS011;7220;49.450;11.052;2023-04-09T11:09:26;7.97;;;7.18;;
14272;SDS011;7220;49.450;11.052;2023-04-09T11:13:27;7.40;;;6.57;;
14272;SDS011;7220;49.450;11.052;2023-04-09T11:17:28;7.82;;;7.13;;
14272;SDS011;7220;49.450;11.052;2023-04-09T11:21:28;7.68;;;6.97;;
14272;SDS011;7220;49.450;11.052;2023-04-09T11:25:32;7.50;;;6.82;;
14272;SDS011;7220;49.450;11.052;2023-04-09T11:29:34;7.53;;;6.82;;
14272;SDS011;7220;49.450;11.052;2023-04-09T11:33:35;6.75;;;6.15;;
14272;SDS011;7220;49.450;11.052;2023-04-09T11:37:35;7.00;;;6.37;;
14272;SDS011;7220;49.450;11.052;2023-04-09T11:41:36;12.70;;;11.45;;
14272;SDS011;7220;49.450;11.052;2023-04-09T11:45:37;7.90;;;7.20;;
14272;SDS011;7220;49.450;11.052;2023-04-09T11:49:38;11.98;;;10.77;;
14272;SDS011;7220;49.450;11.052;2023-04-09T11:53:39;7.50;;;6.80;;
14272;SDS011;7220;49.450;11.052;2023-04-09T11:57:43;6.53;;;5.82;;
14272;SDS011;7220;49.450;11.052;2023-04-09T12:01:48;10.20;;;9.25;;
14272;SDS011;7220;49.450;11.052;2023-04-09T12:05:50;6.93;;;6.32;;
14272;SDS011;7220;49.450;11.052;2023-04-09T12:09:50;7.17;;;6.57;;
14272;SDS011;7220;49.450;11.052;2023-04-09T12:13:57;7.13;;;6.45;;
14272;SDS011;7220;49.450;11.052;2023-04-09T12:17:58;6.50;;;5.90;;
14272;SDS011;7220;49.450;11.052;2023-04-09T12:21:59;6.45;;;5.95;;
14272;SDS011;7220;49.450;11.052;2023-04-09T12:25:59;7.05;;;6.45;;
14272;SDS011;7220;49.450;11.052;2023-04-09T12:30:00;6.03;;;5.53;;
14272;SDS011;7220;49.450;11.052;2023-04-09T12:34:00;5.85;;;5.35;;
14272;SDS011;7220;49.450;11.052;2023-04-09T12:38:00;6.07;;;5.47;;
14272;SDS011;7220;49.450;11.052;2023-04-09T12:42:01;5.38;;;4.88;;
14272;SDS011;7220;49.450;11.052;2023-04-09T12:46:01;5.57;;;5.07;;
14272;SDS011;7220;49.450;11.052;2023-04-09T12:50:05;6.50;;;6.00;;
14272;SDS011;7220;49.450;11.052;2023-04-09T12:54:06;6.10;;;5.57;;
14272;SDS011;7220;49.450;11.052;2023-04-09T12:58:07;5.93;;;5.43;;
14272;SDS011;7220;49.450;11.052;2023-04-09T13:02:07;6.95;;;6.35;;
14272;SDS011;7220;49.450;11.052;2023-04-09T13:06:07;6.90;;;6.20;;
14272;SDS011;7220;49.450;11.052;2023-04-09T13:10:08;6.60;;;6.00;;
14272;SDS011;7220;49.450;11.052;2023-04-09T13:14:08;6.95;;;6.35;;
14272;SDS011;7220;49.450;11.052;2023-04-09T13:18:12;7.15;;;6.40;;
14272;SDS011;7220;49.450;11.052;2023-04-09T13:22:12;6.88;;;6.28;;
14272;SDS011;7220;49.450;11.052;2023-04-09T13:26:13;6.38;;;5.88;;
14272;SDS011;7220;49.450;11.052;2023-04-09T13:30:13;6.80;;;6.20;;
14272;SDS011;7220;49.450;11.052;2023-04-09T13:34:14;6.70;;;6.10;;
14272;SDS011;7220;49.450;11.052;2023-04-09T13:38:15;6.70;;;6.10;;
14272;SDS011;7220;49.450;11.052;2023-04-09T13:42:15;7.72;;;7.03;;
14272;SDS011;7220;49.450;11.052;2023-04-09T13:46:16;6.93;;;6.22;;
14272;SDS011;7220;49.450;11.052;2023-04-09T13:50:16;6.47;;;5.97;;
14272;SDS011;7220;49.450;11.052;2023-04-09T13:54:17;6.25;;;5.75;;
14272;SDS011;7220;49.450;11.052;2023-04-09T13:58:17;6.55;;;5.95;;
14272;SDS011;7220;49.450;11.052;2023-04-09T14:02:18;6.63;;;6.03;;
14272;SDS011;7220;49.450;11.052;2023-04-09T14:06:18;10.15;;;9.23;;
14272;SDS011;7220;49.450;11.052;2023-04-09T14:10:18;8.13;;;7.37;;
14272;SDS011;7220;49.450;11.052;2023-04-09T14:14:19;6.68;;;6.07;;
14272;SDS011;7220;49.450;11.052;2023-04-09T14:18:19;7.07;;;6.47;;
14272;SDS011;7220;49.450;11.052;2023-04-09T14:22:20;7.45;;;6.80;;
14272;SDS011;7220;49.450;11.052;2023-04-09T14:26:20;7.43;;;6.73;;
14272;SDS011;7220;49.450;11.052;2023-04-09T14:30:22;6.90;;;6.30;;
14272;SDS011;7220;49.450;11.052;2023-04-09T14:34:22;7.70;;;6.97;;
14272;SDS011;7220;49.450;11.052;2023-04-09T14:38:23;7.33;;;6.63;;
14272;SDS011;7220;49.450;11.052;2023-04-09T14:42:23;6.82;;;6.20;;
14272;SDS011;7220;49.450;11.052;2023-04-09T14:46:23;6.43;;;5.93;;
14272;SDS011;7220;49.450;11.052;2023-04-09T14:50:24;6.00;;;5.50;;
14272;SDS011;7220;49.450;11.052;2023-04-09T14:54:24;5.18;;;4.78;;
14272;SDS011;7220;49.450;11.052;2023-04-09T14:58:25;5.40;;;5.00;;
14272;SDS011;7220;49.450;11.052;2023-04-09T15:02:25;5.87;;;5.37;;
14272;SDS011;7220;49.450;11.052;2023-04-09T15:06:25;6.20;;;5.70;;
14272;SDS011;7220;49.450;11.052;2023-04-09T15:10:26;6.65;;;6.15;;
14272;SDS011;7220;49.450;11.052;2023-04-09T15:14:27;7.17;;;6.57;;
14272;SDS011;7220;49.450;11.052;2023-04-09T15:18:30;7.00;;;5.95;;
14272;SDS011;7220;49.450;11.052;2023-04-09T15:22:32;6.78;;;5.80;;
14272;SDS011;7220;49.450;11.052;2023-04-09T15:26:35;6.53;;;5.93;;
14272;SDS011;7220;49.450;11.052;2023-04-09T15:30:35;6.50;;;6.00;;
14272;SDS011;7220;49.450;11.052;2023-04-09T15:34:36;6.13;;;5.63;;
14272;SDS011;7220;49.450;11.052;2023-04-09T15:38:36;6.70;;;6.07;;
14272;SDS011;7220;49.450;11.052;2023-04-09T15:42:36;6.82;;;6.22;;
14272;SDS011;7220;49.450;11.052;2023-04-09T15:46:37;7.57;;;6.87;;
14272;SDS011;7220;49.450;11.052;2023-04-09T15:50:37;6.72;;;6.13;;
14272;SDS011;7220;49.450;11.052;2023-04-09T15:54:38;7.88;;;7.22;;
14272;SDS011;7220;49.450;11.052;2023-04-09T15:58:38;7.07;;;6.47;;
14272;SDS011;7220;49.450;11.052;2023-04-09T16:02:39;6.43;;;5.88;;
14272;SDS011;7220;49.450;11.052;2023-04-09T16:06:39;5.88;;;5.38;;
14272;SDS011;7220;49.450;11.052;2023-04-09T16:10:40;6.88;;;6.18;;
14272;SDS011;7220;49.450;11.052;2023-04-09T16:14:40;7.15;;;6.45;;
14272;SDS011;7220;49.450;11.052;2023-04-09T16:18:41;6.75;;;6.15;;
14272;SDS011;7220;49.450;11.052;2023-04-09T16:22:41;6.93;;;6.22;;
14272;SDS011;7220;49.450;11.052;2023-04-09T16:26:42;6.70;;;6.10;;
14272;SDS011;7220;49.450;11.052;2023-04-09T16:30:43;6.85;;;6.25;;
14272;SDS011;7220;49.450;11.052;2023-04-09T16:34:43;7.95;;;7.18;;
14272;SDS011;7220;49.450;11.052;2023-04-09T16:38:44;7.60;;;6.90;;
14272;SDS011;7220;49.450;11.052;2023-04-09T16:42:44;8.18;;;7.35;;
14272;SDS011;7220;49.450;11.052;2023-04-09T16:46:44;8.47;;;7.60;;
14272;SDS011;7220;49.450;11.052;2023-04-09T16:50:45;8.25;;;7.45;;
14272;SDS011;7220;49.450;11.052;2023-04-09T16:54:45;7.23;;;6.53;;
14272;SDS011;7220;49.450;11.052;2023-04-09T16:58:45;7.97;;;7.27;;
14272;SDS011;7220;49.450;11.052;2023-04-09T17:02:46;8.35;;;7.55;;
14272;SDS011;7220;49.450;11.052;2023-04-09T17:06:46;7.90;;;7.20;;
14272;SDS011;7220;49.450;11.052;2023-04-09T17:10:46;7.70;;;7.00;;
14272;SDS011;7220;49.450;11.052;2023-04-09T17:14:47;8.40;;;7.60;;
14272;SDS011;7220;49.450;11.052;2023-04-09T17:18:47;8.00;;;7.20;;
14272;SDS011;7220;49.450;11.052;2023-04-09T17:22:48;8.98;;;8.02;;
14272;SDS011;7220;49.450;11.052;2023-04-09T17:26:48;8.60;;;7.57;;
14272;SDS011;7220;49.450;11.052;2023-04-09T17:30:48;7.68;;;7.00;;
14272;SDS011;7220;49.450;11.052;2023-04-09T17:34:49;8.33;;;7.57;;
14272;SDS011;7220;49.450;11.052;2023-04-09T17:38:49;8.63;;;7.72;;
14272;SDS011;7220;49.450;11.052;2023-04-09T17:42:51;7.97;;;7.25;;
14272;SDS011;7220;49.450;11.052;2023-04-09T17:46:51;10.98;;;9.63;;
14272;SDS011;7220;49.450;11.052;2023-04-09T17:50:52;9.93;;;8.90;;
14272;SDS011;7220;49.450;11.052;2023-04-09T17:54:52;9.68;;;8.45;;
14272;SDS011;7220;49.450;11.052;2023-04-09T17:58:53;9.23;;;8.33;;
14272;SDS011;7220;49.450;11.052;2023-04-09T18:02:53;8.70;;;7.88;;
14272;SDS011;7220;49.450;11.052;2023-04-09T18:06:53;10.10;;;9.05;;
14272;SDS011;7220;49.450;11.052;2023-04-09T18:10:54;10.82;;;9.73;;
14272;SDS011;7220;49.450;11.052;2023-04-09T18:14:55;12.80;;;11.23;;
14272;SDS011;7220;49.450;11.052;2023-04-09T18:18:55;10.23;;;9.23;;
14272;SDS011;7220;49.450;11.052;2023-04-09T18:22:55;11.02;;;9.93;;
14272;SDS011;7220;49.450;11.052;2023-04-09T18:26:56;9.97;;;8.97;;
14272;SDS011;7220;49.450;11.052;2023-04-09T18:30:56;10.05;;;9.05;;
14272;SDS011;7220;49.450;11.052;2023-04-09T18:34:57;10.93;;;9.82;;
14272;SDS011;7220;49.450;11.052;2023-04-09T18:38:57;11.38;;;10.27;;
14272;SDS011;7220;49.450;11.052;2023-04-09T18:42:58;9.65;;;8.75;;
14272;SDS011;7220;49.450;11.052;2023-04-09T18:46:58;10.52;;;8.55;;
14272;SDS011;7220;49.450;11.052;2023-04-09T18:51:00;9.52;;;8.63;;
14272;SDS011;7220;49.450;11.052;2023-04-09T18:55:02;9.40;;;8.15;;
14272;SDS011;7220;49.450;11.052;2023-04-09T18:59:02;9.40;;;8.50;;
14272;SDS011;7220;49.450;11.052;2023-04-09T19:03:03;9.35;;;8.32;;
14272;SDS011;7220;49.450;11.052;2023-04-09T19:07:03;10.38;;;9.13;;
14272;SDS011;7220;49.450;11.052;2023-04-09T19:11:05;10.20;;;9.13;;
14272;SDS011;7220;49.450;11.052;2023-04-09T19:15:06;10.50;;;9.23;;
14272;SDS011;7220;49.450;11.052;2023-04-09T19:19:07;9.88;;;8.88;;
14272;SDS011;7220;49.450;11.052;2023-04-09T19:23:07;10.18;;;9.00;;
14272;SDS011;7220;49.450;11.052;2023-04-09T19:27:08;9.32;;;8.38;;
14272;SDS011;7220;49.450;11.052;2023-04-09T19:31:10;9.18;;;8.20;;
14272;SDS011;7220;49.450;11.052;2023-04-09T19:35:13;14.55;;;11.95;;
14272;SDS011;7220;49.450;11.052;2023-04-09T19:39:14;22.23;;;16.63;;
14272;SDS011;7220;49.450;11.052;2023-04-09T19:43:14;13.15;;;11.30;;
14272;SDS011;7220;49.450;11.052;2023-04-09T19:47:15;11.68;;;9.73;;
14272;SDS011;7220;49.450;11.052;2023-04-09T19:51:16;11.02;;;9.60;;
14272;SDS011;7220;49.450;11.052;2023-04-09T19:55:18;9.70;;;8.65;;
14272;SDS011;7220;49.450;11.052;2023-04-09T19:59:18;10.73;;;9.63;;
14272;SDS011;7220;49.450;11.052;2023-04-09T20:03:18;23.65;;;18.83;;
14272;SDS011;7220;49.450;11.052;2023-04-09T20:07:19;24.63;;;18.43;;
14272;SDS011;7220;49.450;11.052;2023-04-09T20:11:19;33.00;;;26.25;;
14272;SDS011;7220;49.450;11.052;2023-04-09T20:15:19;34.15;;;27.08;;
14272;SDS011;7220;49.450;11.052;2023-04-09T20:19:20;22.58;;;17.55;;
14272;SDS011;7220;49.450;11.052;2023-04-09T20:23:21;13.10;;;11.30;;
14272;SDS011;7220;49.450;11.052;2023-04-09T20:27:21;12.65;;;10.30;;
14272;SDS011;7220;49.450;11.052;2023-04-09T20:31:21;11.38;;;10.18;;
14272;SDS011;7220;49.450;11.052;2023-04-09T20:35:22;11.27;;;9.93;;
14272;SDS011;7220;49.450;11.052;2023-04-09T20:39:23;12.98;;;10.20;;
14272;SDS011;7220;49.450;11.052;2023-04-09T20:43:25;12.65;;;10.98;;
14272;SDS011;7220;49.450;11.052;2023-04-09T20:47:26;13.88;;;10.85;;
14272;SDS011;7220;49.450;11.052;2023-04-09T20:51:27;15.88;;;12.90;;
14272;SDS011;7220;49.450;11.052;2023-04-09T20:55:27;17.55;;;13.15;;
14272;SDS011;7220;49.450;11.052;2023-04-09T20:59:27;16.23;;;13.02;;
14272;SDS011;7220;49.450;11.052;2023-04-09T21:03:27;13.32;;;11.18;;
14272;SDS011;7220;49.450;11.052;2023-04-09T21:07:28;13.27;;;11.88;;
14272;SDS011;7220;49.450;11.052;2023-04-09T21:11:29;13.70;;;12.00;;
14272;SDS011;7220;49.450;11.052;2023-04-09T21:15:29;15.70;;;13.27;;
14272;SDS011;7220;49.450;11.052;2023-04-09T21:19:29;18.55;;;13.07;;
14272;SDS011;7220;49.450;11.052;2023-04-09T21:23:30;16.75;;;13.10;;
14272;SDS011;7220;49.450;11.052;2023-04-09T21:27:30;19.17;;;14.57;;
14272;SDS011;7220;49.450;11.052;2023-04-09T21:31:31;23.90;;;18.60;;
14272;SDS011;7220;49.450;11.052;2023-04-09T21:35:31;21.00;;;16.42;;
14272;SDS011;7220;49.450;11.052;2023-04-09T21:39:32;28.92;;;21.38;;
14272;SDS011;7220;49.450;11.052;2023-04-09T21:43:32;22.67;;;17.83;;
14272;SDS011;7220;49.450;11.052;2023-04-09T21:47:34;24.60;;;18.75;;
14272;SDS011;7220;49.450;11.052;2023-04-09T21:51:34;22.80;;;16.48;;
14272;SDS011;7220;49.450;11.052;2023-04-09T21:55:35;19.20;;;16.30;;
14272;SDS011;7220;49.450;11.052;2023-04-09T21:59:36;21.10;;;15.68;;
14272;SDS011;7220;49.450;11.052;2023-04-09T22:03:36;17.33;;;13.85;;
14272;SDS011;7220;49.450;11.052;2023-04-09T22:07:38;15.38;;;12.88;;
14272;SDS011;7220;49.450;11.052;2023-04-09T22:11:38;16.35;;;13.30;;
14272;SDS011;7220;49.450;11.052;2023-04-09T22:15:40;13.38;;;11.98;;
14272;SDS011;7220;49.450;11.052;2023-04-09T22:19:40;14.70;;;12.35;;
14272;SDS011;7220;49.450;11.052;2023-04-09T22:23:41;13.20;;;11.80;;
14272;SDS011;7220;49.450;11.052;2023-04-09T22:27:41;14.48;;;11.98;;
14272;SDS011;7220;49.450;11.052;2023-04-09T22:31:42;15.63;;;12.23;;
14272;SDS011;7220;49.450;11.052;2023-04-09T22:35:43;13.43;;;11.52;;
14272;SDS011;7220;49.450;11.052;2023-04-09T22:39:43;16.05;;;11.88;;
14272;SDS011;7220;49.450;11.052;2023-04-09T22:43:44;14.45;;;12.57;;
14272;SDS011;7220;49.450;11.052;2023-04-09T22:47:44;13.52;;;11.57;;
14272;SDS011;7220;49.450;11.052;2023-04-09T22:51:44;14.83;;;12.53;;
14272;SDS011;7220;49.450;11.052;2023-04-09T22:55:45;13.45;;;12.05;;
14272;SDS011;7220;49.450;11.052;2023-04-09T22:59:53;15.07;;;13.10;;
14272;SDS011;7220;49.450;11.052;2023-04-09T23:03:53;15.57;;;12.30;;
14272;SDS011;7220;49.450;11.052;2023-04-09T23:07:54;15.40;;;13.25;;
14272;SDS011;7220;49.450;11.052;2023-04-09T23:11:55;16.55;;;13.55;;
14272;SDS011;7220;49.450;11.052;2023-04-09T23:15:56;17.13;;;14.65;;
14272;SDS011;7220;49.450;11.052;2023-04-09T23:19:56;16.00;;;14.02;;
14272;SDS011;7220;49.450;11.052;2023-04-09T23:23:56;16.23;;;13.52;;
14272;SDS011;7220;49.450;11.052;2023-04-09T23:27:56;15.23;;;13.25;;
14272;SDS011;7220;49.450;11.052;2023-04-09T23:31:57;15.13;;;12.67;;
14272;SDS011;7220;49.450;11.052;2023-04-09T23:35:57;15.20;;;12.75;;
14272;SDS011;7220;49.450;11.052;2023-04-09T23:39:58;15.93;;;12.63;;
14272;SDS011;7220;49.450;11.052;2023-04-09T23:43:58;17.55;;;13.23;;
14272;SDS011;7220;49.450;11.052;2023-04-09T23:47:58;17.23;;;13.73;;
14272;SDS011;7220;49.450;11.052;2023-04-09T23:51:58;13.82;;;11.93;;
14272;SDS011;7220;49.450;11.052;2023-04-09T23:55:59;14.75;;;12.45;;
14272;SDS011;7220;49.450;11.052;2023-04-09T23:59:59;14.23;;;12.05;;
